Time;durP1;ratioP1;P1;durP2;ratioP2;P2;SDS_P1;SDS_P2;PMS_P1;PMS_P2;Temp;Humidity;BMP_temperature;BMP_pressure;BME280_temperature;BME280_humidity;BME280_pressure;Samples;Min_cycle;Max_cycle;Signal;HPM_P1;HPM_P2
2022/02/23 00:02:36;;;;;;;42.85;24.92;;;;;;;;;;10404905;28;20156;-74
2022/02/23 00:07:36;;;;;;;48.95;24.00;;;;;;;;;;10404857;28;20127;-74
2022/02/23 00:12:37;;;;;;;48.27;25.70;;;;;;;;;;10404445;28;20018;-76
2022/02/23 00:17:37;;;;;;;44.97;23.40;;;;;;;;;;10411231;28;20009;-79
2022/02/23 00:22:38;;;;;;;42.83;21.92;;;;;;;;;;10412124;28;20056;-79
2022/02/23 00:27:38;;;;;;;41.15;20.73;;;;;;;;;;10411882;28;20043;-75
2022/02/23 00:32:39;;;;;;;44.40;22.52;;;;;;;;;;10411130;28;20053;-75
2022/02/23 00:37:39;;;;;;;48.50;24.02;;;;;;;;;;10411320;28;20507;-79
2022/02/23 00:42:39;;;;;;;45.28;23.40;;;;;;;;;;10412277;28;20468;-75
2022/02/23 00:47:40;;;;;;;46.23;24.53;;;;;;;;;;10411049;28;20048;-70
2022/02/23 00:52:40;;;;;;;47.05;24.20;;;;;;;;;;10412563;28;20335;-74
2022/02/23 00:57:41;;;;;;;41.97;21.90;;;;;;;;;;10410628;28;20026;-74
2022/02/23 01:02:41;;;;;;;46.67;23.83;;;;;;;;;;10410344;28;20031;-74
2022/02/23 01:07:41;;;;;;;46.22;20.80;;;;;;;;;;10409876;28;20550;-74
2022/02/23 01:12:41;;;;;;;49.72;24.40;;;;;;;;;;10409853;28;20460;-75
2022/02/23 01:17:42;;;;;;;48.35;23.42;;;;;;;;;;10409666;28;20017;-74
2022/02/23 01:22:42;;;;;;;47.47;23.40;;;;;;;;;;10409114;28;20014;-74
2022/02/23 01:27:42;;;;;;;41.30;23.27;;;;;;;;;;10408643;28;20141;-74
2022/02/23 01:32:43;;;;;;;42.40;21.40;;;;;;;;;;10409028;28;20115;-76
2022/02/23 01:37:43;;;;;;;39.10;20.20;;;;;;;;;;10408717;28;20096;-75
2022/02/23 01:42:43;;;;;;;43.40;21.00;;;;;;;;;;10409999;28;20024;-79
2022/02/23 01:47:44;;;;;;;36.77;19.90;;;;;;;;;;10409213;28;20017;-78
2022/02/23 01:52:45;;;;;;;40.85;20.83;;;;;;;;;;10410017;28;20226;-74
2022/02/23 01:57:45;;;;;;;38.35;20.70;;;;;;;;;;10410364;28;20496;-74
2022/02/23 02:02:46;;;;;;;45.58;21.65;;;;;;;;;;10408810;28;20018;-75
2022/02/23 02:07:47;;;;;;;37.42;19.23;;;;;;;;;;10408453;28;20577;-73
2022/02/23 02:12:47;;;;;;;41.95;20.20;;;;;;;;;;10411456;28;20025;-78
2022/02/23 02:17:47;;;;;;;38.27;19.13;;;;;;;;;;10407364;28;20026;-78
2022/02/23 02:22:47;;;;;;;39.27;19.57;;;;;;;;;;10423884;28;20025;-82
2022/02/23 02:27:48;;;;;;;36.10;18.73;;;;;;;;;;10407013;28;20014;-71
2022/02/23 02:32:48;;;;;;;37.23;19.57;;;;;;;;;;10423325;28;20045;-78
2022/02/23 02:37:48;;;;;;;35.50;18.05;;;;;;;;;;10406713;28;20038;-78
2022/02/23 02:42:49;;;;;;;28.55;17.92;;;;;;;;;;10406608;28;20025;-79
2022/02/23 02:47:49;;;;;;;34.97;17.97;;;;;;;;;;10407750;28;20041;-78
2022/02/23 02:52:49;;;;;;;38.60;19.33;;;;;;;;;;10422742;28;20025;-74
2022/02/23 02:57:50;;;;;;;34.63;18.03;;;;;;;;;;10406326;28;20029;-78
2022/02/23 03:02:50;;;;;;;33.47;17.33;;;;;;;;;;10422339;28;20292;-74
2022/02/23 03:07:50;;;;;;;33.05;17.17;;;;;;;;;;10422415;28;20021;-75
2022/02/23 03:12:50;;;;;;;35.27;16.97;;;;;;;;;;10406693;28;20041;-75
2022/02/23 03:17:51;;;;;;;29.27;17.33;;;;;;;;;;10421515;28;20020;-77
2022/02/23 03:22:51;;;;;;;28.15;15.93;;;;;;;;;;10406536;28;20425;-75
2022/02/23 03:27:51;;;;;;;28.38;16.00;;;;;;;;;;10421854;28;20021;-74
2022/02/23 03:32:52;;;;;;;29.20;17.03;;;;;;;;;;10404189;28;20053;-74
2022/02/23 03:37:52;;;;;;;30.93;17.70;;;;;;;;;;10420444;28;20355;-81
2022/02/23 03:42:53;;;;;;;29.63;16.17;;;;;;;;;;10404505;28;20746;-75
2022/02/23 03:47:53;;;;;;;28.05;15.30;;;;;;;;;;10433509;28;20674;-74
2022/02/23 03:52:54;;;;;;;28.67;16.07;;;;;;;;;;10445464;28;20499;-75
2022/02/23 03:57:54;;;;;;;28.67;15.48;;;;;;;;;;10445439;28;20283;-75
2022/02/23 04:02:54;;;;;;;30.70;16.07;;;;;;;;;;10446282;28;20021;-75
2022/02/23 04:07:55;;;;;;;27.73;15.75;;;;;;;;;;10444269;28;20799;-74
2022/02/23 04:12:55;;;;;;;28.67;15.43;;;;;;;;;;10444782;28;20032;-74
2022/02/23 04:17:55;;;;;;;28.13;14.57;;;;;;;;;;10444869;28;20108;-75
2022/02/23 04:22:56;;;;;;;30.17;15.98;;;;;;;;;;10444596;28;20119;-74
2022/02/23 04:27:56;;;;;;;29.27;14.95;;;;;;;;;;10444643;28;20028;-74
2022/02/23 04:32:56;;;;;;;25.77;15.30;;;;;;;;;;10442829;28;20512;-80
2022/02/23 04:37:56;;;;;;;24.40;14.80;;;;;;;;;;10422643;28;20029;-77
2022/02/23 04:42:57;;;;;;;29.15;15.60;;;;;;;;;;10433547;28;20283;-76
2022/02/23 04:47:57;;;;;;;30.25;14.88;;;;;;;;;;10444410;28;20036;-76
2022/02/23 04:52:57;;;;;;;25.20;14.10;;;;;;;;;;10444332;28;20028;-75
2022/02/23 04:57:58;;;;;;;26.63;15.13;;;;;;;;;;10414576;28;20021;-73
2022/02/23 05:02:58;;;;;;;26.38;16.50;;;;;;;;;;10450801;28;20032;-74
2022/02/23 05:07:58;;;;;;;31.70;16.13;;;;;;;;;;10453944;28;20087;-75
2022/02/23 05:12:59;;;;;;;26.37;14.03;;;;;;;;;;10432321;28;20650;-76
2022/02/23 05:17:59;;;;;;;30.23;16.50;;;;;;;;;;10410464;28;20383;-75
2022/02/23 05:22:59;;;;;;;27.40;15.38;;;;;;;;;;10409644;28;20462;-75
2022/02/23 05:28:00;;;;;;;26.43;15.13;;;;;;;;;;10439694;28;20450;-77
2022/02/23 05:33:00;;;;;;;28.08;16.55;;;;;;;;;;10424905;28;20354;-74
2022/02/23 05:38:01;;;;;;;24.40;15.57;;;;;;;;;;10408955;28;20036;-76
2022/02/23 05:43:01;;;;;;;28.75;14.95;;;;;;;;;;10408704;28;20499;-75
2022/02/23 05:48:03;;;;;;;27.67;15.47;;;;;;;;;;10441867;28;20029;-79
2022/02/23 05:53:04;;;;;;;25.02;16.55;;;;;;;;;;10449873;28;20287;-74
2022/02/23 05:58:04;;;;;;;28.80;16.23;;;;;;;;;;10449155;28;20101;-75
2022/02/23 06:03:08;;;;;;;26.70;15.97;;;;;;;;;;10449792;28;20025;-75
2022/02/23 06:08:08;;;;;;;30.15;15.55;;;;;;;;;;10431881;28;20271;-74
2022/02/23 06:13:10;;;;;;;27.07;14.70;;;;;;;;;;10447810;28;20025;-75
2022/02/23 06:18:10;;;;;;;29.58;15.57;;;;;;;;;;10448254;28;20077;-74
2022/02/23 06:23:10;;;;;;;26.67;14.77;;;;;;;;;;10448157;28;20013;-76
2022/02/23 06:28:10;;;;;;;24.70;14.03;;;;;;;;;;10447028;28;20059;-74
2022/02/23 06:33:11;;;;;;;27.98;15.13;;;;;;;;;;10446598;28;20326;-75
2022/02/23 06:38:12;;;;;;;21.92;12.93;;;;;;;;;;10448593;28;20063;-74
2022/02/23 06:43:14;;;;;;;26.60;15.93;;;;;;;;;;10446784;28;20039;-74
2022/02/23 06:48:14;;;;;;;23.25;14.02;;;;;;;;;;10446466;28;20025;-73
2022/02/23 06:53:15;;;;;;;27.63;15.57;;;;;;;;;;10448381;28;20025;-74
2022/02/23 06:58:15;;;;;;;28.63;15.52;;;;;;;;;;10447602;28;20032;-76
2022/02/23 07:03:15;;;;;;;24.67;15.48;;;;;;;;;;10446216;28;20028;-74
2022/02/23 07:08:16;;;;;;;26.25;13.48;;;;;;;;;;10446205;28;20116;-75
2022/02/23 07:13:17;;;;;;;22.02;13.55;;;;;;;;;;10445530;28;20025;-77
2022/02/23 07:18:17;;;;;;;33.20;15.15;;;;;;;;;;10445745;28;20025;-74
2022/02/23 07:23:17;;;;;;;23.45;15.43;;;;;;;;;;10445304;28;20489;-75
2022/02/23 07:28:18;;;;;;;29.48;15.45;;;;;;;;;;10445384;28;20029;-75
2022/02/23 07:33:19;;;;;;;28.88;14.68;;;;;;;;;;10444605;28;20067;-74
2022/02/23 07:38:19;;;;;;;27.60;13.27;;;;;;;;;;10436814;28;20579;-73
2022/02/23 07:43:19;;;;;;;24.58;12.90;;;;;;;;;;10404301;28;20021;-74
2022/02/23 07:48:20;;;;;;;26.10;14.02;;;;;;;;;;10405344;28;20080;-77
2022/02/23 07:53:21;;;;;;;23.27;13.68;;;;;;;;;;10403994;28;20353;-74
2022/02/23 07:58:21;;;;;;;21.73;12.93;;;;;;;;;;10403768;28;20116;-74
2022/02/23 08:03:23;;;;;;;24.55;12.75;;;;;;;;;;10419934;28;20025;-75
2022/02/23 08:08:23;;;;;;;24.60;13.60;;;;;;;;;;10405192;28;20458;-76
2022/02/23 08:13:23;;;;;;;27.63;14.10;;;;;;;;;;10420453;28;20025;-75
2022/02/23 08:23:45;;;;;;;25.15;12.60;;;;;;;;;;10404222;28;20643;-72
2022/02/23 08:28:45;;;;;;;17.02;10.40;;;;;;;;;;10403465;28;20032;-74
2022/02/23 08:33:46;;;;;;;18.53;11.97;;;;;;;;;;10402708;28;20137;-75
2022/02/23 08:38:46;;;;;;;19.95;11.10;;;;;;;;;;10427154;28;20045;-75
2022/02/23 08:43:46;;;;;;;22.20;11.32;;;;;;;;;;10410949;28;20392;-74
2022/02/23 08:48:47;;;;;;;18.10;10.60;;;;;;;;;;10410542;28;20029;-75
2022/02/23 08:53:47;;;;;;;14.43;9.53;;;;;;;;;;10411807;28;20055;-75
2022/02/23 08:58:47;;;;;;;16.98;10.23;;;;;;;;;;10411042;28;20021;-76
2022/02/23 09:03:48;;;;;;;17.77;10.37;;;;;;;;;;10410242;28;20029;-74
2022/02/23 09:08:48;;;;;;;18.30;9.77;;;;;;;;;;10411204;28;20029;-73
2022/02/23 09:13:48;;;;;;;17.48;9.00;;;;;;;;;;10426314;28;20505;-74
2022/02/23 09:18:49;;;;;;;15.07;8.70;;;;;;;;;;10409201;28;20021;-81
2022/02/23 09:23:49;;;;;;;15.43;8.77;;;;;;;;;;10409909;28;20020;-74
2022/02/23 09:28:50;;;;;;;16.58;8.63;;;;;;;;;;10392437;28;20589;-75
2022/02/23 09:33:51;;;;;;;13.13;7.97;;;;;;;;;;10425156;28;20402;-74
2022/02/23 09:38:51;;;;;;;13.63;7.30;;;;;;;;;;10408566;28;20439;-75
2022/02/23 09:43:54;;;;;;;14.20;9.27;;;;;;;;;;10410382;28;20029;-80
2022/02/23 09:48:54;;;;;;;18.77;8.63;;;;;;;;;;10408746;28;20045;-73
2022/02/23 09:53:55;;;;;;;19.93;9.70;;;;;;;;;;10410354;28;20060;-71
2022/02/23 09:58:55;;;;;;;18.65;9.73;;;;;;;;;;10409466;28;20030;-77
2022/02/23 10:03:56;;;;;;;14.38;9.00;;;;;;;;;;10429946;28;20115;-75
2022/02/23 10:09:00;;;;;;;18.43;9.30;;;;;;;;;;10409201;28;20036;-73
2022/02/23 10:14:02;;;;;;;15.43;9.55;;;;;;;;;;10408049;28;20024;-75
2022/02/23 10:19:05;;;;;;;17.80;9.40;;;;;;;;;;10407266;28;20021;-73
2022/02/23 10:24:19;;;;;;;15.20;8.63;;;;;;;;;;10408267;28;20022;-73
2022/02/23 10:29:26;;;;;;;16.23;8.73;;;;;;;;;;10406595;28;20478;-75
2022/02/23 10:34:27;;;;;;;14.32;8.45;;;;;;;;;;10406732;28;20041;-77
2022/02/23 10:39:34;;;;;;;13.02;7.18;;;;;;;;;;10406507;28;20489;-76
2022/02/23 10:44:38;;;;;;;15.37;7.90;;;;;;;;;;10406380;28;20018;-76
2022/02/23 10:49:38;;;;;;;10.40;7.55;;;;;;;;;;10405812;28;20025;-75
2022/02/23 10:54:38;;;;;;;10.87;7.37;;;;;;;;;;10405383;28;20018;-75
2022/02/23 10:59:39;;;;;;;12.13;6.22;;;;;;;;;;10421894;28;20013;-75
2022/02/23 11:04:39;;;;;;;17.00;6.45;;;;;;;;;;10405333;28;20052;-74
2022/02/23 11:09:40;;;;;;;15.07;7.60;;;;;;;;;;10404664;28;20104;-77
2022/02/23 11:14:41;;;;;;;17.05;7.65;;;;;;;;;;10405406;28;20040;-74
2022/02/23 11:19:41;;;;;;;11.18;6.32;;;;;;;;;;10406499;28;20372;-74
2022/02/23 11:24:42;;;;;;;8.55;5.55;;;;;;;;;;10405857;28;20029;-74
2022/02/23 11:29:47;;;;;;;14.35;7.15;;;;;;;;;;10404620;28;20035;-73
2022/02/23 11:34:48;;;;;;;15.30;7.82;;;;;;;;;;10406303;28;20147;-75
2022/02/23 11:39:50;;;;;;;14.63;7.07;;;;;;;;;;10404572;28;20041;-76
2022/02/23 11:45:04;;;;;;;10.27;6.35;;;;;;;;;;10404295;28;20025;-74
2022/02/23 11:50:05;;;;;;;10.82;5.97;;;;;;;;;;10404683;28;20033;-76
2022/02/23 11:55:10;;;;;;;11.27;6.05;;;;;;;;;;10404165;28;20099;-73
2022/02/23 12:00:18;;;;;;;10.45;5.43;;;;;;;;;;10420840;28;20489;-75
2022/02/23 12:05:37;;;;;;;9.27;5.47;;;;;;;;;;10403130;28;20070;-75
2022/02/23 12:10:38;;;;;;;8.68;4.85;;;;;;;;;;10407857;28;20040;-75
2022/02/23 12:15:40;;;;;;;6.25;4.28;;;;;;;;;;10412107;28;20507;-74
2022/02/23 12:20:45;;;;;;;7.80;4.70;;;;;;;;;;10412793;28;20033;-74
2022/02/23 12:25:57;;;;;;;12.65;5.47;;;;;;;;;;10428495;28;20024;-74
2022/02/23 12:31:02;;;;;;;8.48;4.75;;;;;;;;;;10427962;28;20029;-74
2022/02/23 12:36:08;;;;;;;7.50;3.67;;;;;;;;;;10410875;28;20118;-74
2022/02/23 12:41:13;;;;;;;13.57;5.15;;;;;;;;;;10410983;28;20520;-74
2022/02/23 12:46:14;;;;;;;11.38;5.07;;;;;;;;;;10410401;28;20014;-74
2022/02/23 12:51:14;;;;;;;18.98;5.43;;;;;;;;;;10411029;28;20331;-74
2022/02/23 12:56:24;;;;;;;8.27;4.63;;;;;;;;;;10410020;28;20021;-75
2022/02/23 13:01:31;;;;;;;7.28;4.90;;;;;;;;;;10419184;28;20028;-73
2022/02/23 13:06:40;;;;;;;15.00;4.77;;;;;;;;;;10451367;28;20028;-73
2022/02/23 13:11:40;;;;;;;;;;;;;;;;;;10448108;28;20269;-75
2022/02/23 13:16:43;;;;;;;9.15;3.95;;;;;;;;;;10419790;28;19909;-74
2022/02/23 13:21:45;;;;;;;8.15;3.95;;;;;;;;;;10449501;28;20032;-74
2022/02/23 13:26:47;;;;;;;10.73;4.43;;;;;;;;;;10421131;28;20042;-75
2022/02/23 13:31:49;;;;;;;11.80;3.92;;;;;;;;;;10410749;28;20025;-75
2022/02/23 13:36:50;;;;;;;7.00;3.70;;;;;;;;;;10409986;28;20049;-74
2022/02/23 13:41:52;;;;;;;8.43;3.45;;;;;;;;;;10420909;28;20028;-75
2022/02/23 13:46:56;;;;;;;17.88;3.30;;;;;;;;;;10448735;28;20558;-72
2022/02/23 13:51:57;;;;;;;6.53;3.35;;;;;;;;;;10449638;28;20111;-74
2022/02/23 13:56:57;;;;;;;8.07;2.75;;;;;;;;;;10448787;28;20511;-73
2022/02/23 14:02:02;;;;;;;12.87;3.40;;;;;;;;;;10448883;28;20020;-78
2022/02/23 14:07:03;;;;;;;8.10;4.03;;;;;;;;;;10449123;28;20555;-75
2022/02/23 14:12:03;;;;;;;14.30;3.97;;;;;;;;;;10448665;28;20021;-76
2022/02/23 14:17:24;;;;;;;12.52;4.30;;;;;;;;;;10448947;28;20276;-75
2022/02/23 14:22:25;;;;;;;10.27;4.13;;;;;;;;;;10448044;28;20345;-74
2022/02/23 14:27:27;;;;;;;9.52;3.28;;;;;;;;;;10448285;28;20151;-74
2022/02/23 14:32:29;;;;;;;6.25;3.50;;;;;;;;;;10447931;28;20035;-76
2022/02/23 14:37:33;;;;;;;8.00;3.95;;;;;;;;;;10406613;28;20037;-74
2022/02/23 14:42:33;;;;;;;7.43;3.13;;;;;;;;;;10406977;28;20485;-73
2022/02/23 14:47:34;;;;;;;7.75;2.53;;;;;;;;;;10405998;28;20029;-73
2022/02/23 14:52:34;;;;;;;8.23;3.63;;;;;;;;;;10405762;28;20025;-72
2022/02/23 14:57:35;;;;;;;8.63;3.83;;;;;;;;;;10429932;28;20086;-74
2022/02/23 15:02:36;;;;;;;8.38;3.08;;;;;;;;;;10447355;28;20021;-75
2022/02/23 15:07:37;;;;;;;7.90;3.47;;;;;;;;;;10446386;28;20071;-74
2022/02/23 15:12:37;;;;;;;8.57;4.50;;;;;;;;;;10418698;28;20029;-74
2022/02/23 15:17:38;;;;;;;8.40;3.70;;;;;;;;;;10406082;28;20025;-74
2022/02/23 15:22:38;;;;;;;9.43;3.83;;;;;;;;;;10405111;28;20395;-77
2022/02/23 15:27:39;;;;;;;5.43;3.08;;;;;;;;;;10433457;28;20037;-75
2022/02/23 15:32:39;;;;;;;12.52;3.53;;;;;;;;;;10444245;28;20032;-77
2022/02/23 15:37:39;;;;;;;11.63;3.40;;;;;;;;;;10446046;28;20029;-74
2022/02/23 15:42:40;;;;;;;14.73;3.90;;;;;;;;;;10445966;28;20270;-78
2022/02/23 15:47:40;;;;;;;7.20;3.63;;;;;;;;;;10446043;28;20497;-76
2022/02/23 15:52:41;;;;;;;9.63;2.97;;;;;;;;;;10404884;28;20264;-79
2022/02/23 15:57:41;;;;;;;12.67;3.13;;;;;;;;;;10403536;28;20021;-75
2022/02/23 16:02:41;;;;;;;10.25;4.10;;;;;;;;;;10404180;28;20028;-73
2022/02/23 16:07:42;;;;;;;9.85;3.75;;;;;;;;;;10416975;28;20029;-77
2022/02/23 16:12:42;;;;;;;10.45;4.00;;;;;;;;;;10445138;28;20035;-75
2022/02/23 16:17:42;;;;;;;7.88;3.30;;;;;;;;;;10444104;28;20090;-76
2022/02/23 16:22:43;;;;;;;12.00;3.05;;;;;;;;;;10409927;28;20477;-75
2022/02/23 16:27:43;;;;;;;13.13;3.00;;;;;;;;;;10403430;28;20033;-74
2022/02/23 16:32:44;;;;;;;9.07;2.80;;;;;;;;;;10413178;28;20041;-72
2022/02/23 16:37:44;;;;;;;8.20;3.90;;;;;;;;;;10445680;28;20083;-77
2022/02/23 16:42:44;;;;;;;6.90;2.90;;;;;;;;;;10444810;28;20526;-76
2022/02/23 16:47:45;;;;;;;8.73;2.83;;;;;;;;;;10443609;28;20029;-75
2022/02/23 16:52:45;;;;;;;10.15;3.63;;;;;;;;;;10443624;28;20476;-74
2022/02/23 16:57:46;;;;;;;11.50;3.33;;;;;;;;;;10420161;28;20059;-74
2022/02/23 17:02:46;;;;;;;9.82;3.92;;;;;;;;;;10436355;28;20386;-75
2022/02/23 17:07:47;;;;;;;5.07;2.33;;;;;;;;;;10408004;28;20056;-76
2022/02/23 17:12:47;;;;;;;7.93;3.50;;;;;;;;;;10406184;28;20021;-75
2022/02/23 17:17:47;;;;;;;12.77;3.55;;;;;;;;;;10435434;28;20407;-76
2022/02/23 17:22:48;;;;;;;14.60;3.00;;;;;;;;;;10417012;28;20026;-75
2022/02/23 17:27:48;;;;;;;17.50;2.92;;;;;;;;;;10418920;28;20067;-74
2022/02/23 17:32:48;;;;;;;10.50;2.83;;;;;;;;;;10448913;28;20033;-79
2022/02/23 17:37:49;;;;;;;11.05;3.10;;;;;;;;;;10449440;28;20123;-77
2022/02/23 17:42:49;;;;;;;9.83;3.73;;;;;;;;;;10424938;28;20021;-77
2022/02/23 17:47:49;;;;;;;8.43;2.97;;;;;;;;;;10418003;28;20029;-75
2022/02/23 17:52:50;;;;;;;6.83;3.17;;;;;;;;;;10436995;28;20267;-74
2022/02/23 17:57:50;;;;;;;10.70;3.87;;;;;;;;;;10449666;28;20279;-76
2022/02/23 18:02:50;;;;;;;10.82;3.80;;;;;;;;;;10449883;28;20025;-76
2022/02/23 18:07:51;;;;;;;7.37;2.73;;;;;;;;;;10440333;28;20068;-75
2022/02/23 18:12:51;;;;;;;8.87;3.37;;;;;;;;;;10409299;28;20743;-76
2022/02/23 18:17:51;;;;;;;6.35;3.45;;;;;;;;;;10446442;28;20477;-75
2022/02/23 18:22:51;;;;;;;7.80;3.07;;;;;;;;;;10405778;28;20087;-76
2022/02/23 18:27:52;;;;;;;7.05;3.28;;;;;;;;;;10446028;28;20025;-75
2022/02/23 18:32:52;;;;;;;8.63;3.90;;;;;;;;;;10447167;28;20041;-75
2022/02/23 18:37:52;;;;;;;7.20;3.78;;;;;;;;;;10447243;28;20292;-76
2022/02/23 18:42:53;;;;;;;6.10;3.30;;;;;;;;;;10416391;28;20268;-76
2022/02/23 18:47:53;;;;;;;9.20;3.88;;;;;;;;;;10432489;28;20156;-76
2022/02/23 18:52:53;;;;;;;9.05;3.50;;;;;;;;;;10433738;28;20031;-76
2022/02/23 18:57:53;;;;;;;11.65;4.32;;;;;;;;;;10391167;28;20499;-76
2022/02/23 19:02:54;;;;;;;10.17;3.80;;;;;;;;;;10405752;28;20017;-76
2022/02/23 19:07:54;;;;;;;11.52;4.93;;;;;;;;;;10422299;28;20088;-83
2022/02/23 19:12:54;;;;;;;8.87;3.77;;;;;;;;;;10445029;28;20560;-75
2022/02/23 19:17:55;;;;;;;17.10;5.10;;;;;;;;;;10444274;28;20097;-76
2022/02/23 19:22:55;;;;;;;9.80;5.00;;;;;;;;;;10408812;28;20017;-77
2022/02/23 19:27:55;;;;;;;11.25;4.95;;;;;;;;;;10444157;28;20027;-74
2022/02/23 19:33:00;;;;;;;9.32;4.97;;;;;;;;;;10444800;28;20032;-75
2022/02/23 19:38:02;;;;;;;14.95;6.22;;;;;;;;;;10445332;28;20098;-75
2022/02/23 19:43:04;;;;;;;19.02;5.35;;;;;;;;;;10444065;28;20029;-76
2022/02/23 19:48:04;;;;;;;12.43;4.80;;;;;;;;;;10406297;28;20018;-76
2022/02/23 19:53:04;;;;;;;11.70;4.30;;;;;;;;;;10427799;28;20025;-75
2022/02/23 19:58:05;;;;;;;9.50;3.93;;;;;;;;;;10411850;28;20018;-76
2022/02/23 20:03:05;;;;;;;9.30;4.43;;;;;;;;;;10419292;28;20875;-76
2022/02/23 20:08:06;;;;;;;13.57;4.25;;;;;;;;;;10403706;28;20025;-80
2022/02/23 20:13:07;;;;;;;10.18;5.25;;;;;;;;;;10402961;28;20124;-75
2022/02/23 20:18:08;;;;;;;8.73;4.80;;;;;;;;;;10402460;28;20112;-74
2022/02/23 20:23:08;;;;;;;7.57;4.05;;;;;;;;;;10402893;28;20014;-76
2022/02/23 20:28:12;;;;;;;9.30;4.13;;;;;;;;;;10403356;28;20432;-80
2022/02/23 20:33:12;;;;;;;11.85;5.10;;;;;;;;;;10408308;28;20319;-76
2022/02/23 20:38:13;;;;;;;9.27;4.75;;;;;;;;;;10410376;28;20112;-74
2022/02/23 20:43:14;;;;;;;9.18;3.80;;;;;;;;;;10410452;28;20583;-75
2022/02/23 20:48:16;;;;;;;11.13;5.35;;;;;;;;;;10410997;28;20025;-75
2022/02/23 20:53:17;;;;;;;11.82;4.70;;;;;;;;;;10426868;28;20021;-74
2022/02/23 20:58:17;;;;;;;8.70;4.43;;;;;;;;;;10411994;28;20083;-75
2022/02/23 21:03:17;;;;;;;7.73;4.67;;;;;;;;;;10410509;28;20115;-77
2022/02/23 21:08:21;;;;;;;6.40;4.77;;;;;;;;;;10409504;28;20670;-72
2022/02/23 21:13:21;;;;;;;17.60;5.28;;;;;;;;;;10409767;28;20025;-75
2022/02/23 21:18:22;;;;;;;19.27;5.53;;;;;;;;;;10433888;28;20026;-73
2022/02/23 21:23:22;;;;;;;13.70;6.33;;;;;;;;;;10421164;28;20025;-70
2022/02/23 21:28:23;;;;;;;17.25;6.57;;;;;;;;;;10408695;28;20424;-73
2022/02/23 21:33:23;;;;;;;10.48;6.25;;;;;;;;;;10407537;28;20139;-72
2022/02/23 21:38:23;;;;;;;13.23;6.90;;;;;;;;;;10425033;28;20292;-76
2022/02/23 21:43:24;;;;;;;12.10;6.90;;;;;;;;;;10409138;28;20021;-78
2022/02/23 21:48:24;;;;;;;18.73;7.27;;;;;;;;;;10424603;28;20500;-75
2022/02/23 21:53:25;;;;;;;11.43;6.85;;;;;;;;;;10458744;28;20402;-75
2022/02/23 21:58:26;;;;;;;17.05;7.18;;;;;;;;;;10460231;28;20029;-74
2022/02/23 22:03:26;;;;;;;13.48;6.07;;;;;;;;;;10447688;28;20405;-76
2022/02/23 22:08:27;;;;;;;10.80;6.10;;;;;;;;;;10416847;28;20455;-76
2022/02/23 22:13:28;;;;;;;11.23;6.20;;;;;;;;;;10407037;28;20128;-78
2022/02/23 22:18:28;;;;;;;14.32;6.10;;;;;;;;;;10406272;28;20041;-76
2022/02/23 22:23:28;;;;;;;17.33;6.18;;;;;;;;;;10405896;28;20017;-76
2022/02/23 22:28:29;;;;;;;9.77;5.80;;;;;;;;;;10406483;28;20017;-75
2022/02/23 22:33:29;;;;;;;19.38;6.18;;;;;;;;;;10419039;28;20045;-78
2022/02/23 22:38:29;;;;;;;13.77;6.13;;;;;;;;;;10405748;28;20026;-72
2022/02/23 22:43:30;;;;;;;15.17;6.70;;;;;;;;;;10407786;28;20026;-73
2022/02/23 22:48:30;;;;;;;15.38;6.72;;;;;;;;;;10422968;28;20264;-69
2022/02/23 22:53:31;;;;;;;15.25;6.70;;;;;;;;;;10405684;28;20451;-73
2022/02/23 22:58:31;;;;;;;10.87;6.33;;;;;;;;;;10407509;28;20481;-73
2022/02/23 23:03:32;;;;;;;10.63;5.50;;;;;;;;;;10406059;28;20021;-73
2022/02/23 23:08:33;;;;;;;12.32;6.32;;;;;;;;;;10405060;28;20497;-73
2022/02/23 23:13:34;;;;;;;16.65;6.65;;;;;;;;;;10407071;28;20085;-79
2022/02/23 23:18:34;;;;;;;9.98;5.60;;;;;;;;;;10405123;28;20032;-73
2022/02/23 23:23:34;;;;;;;12.10;7.00;;;;;;;;;;10404909;28;20021;-72
2022/02/23 23:28:35;;;;;;;9.60;5.80;;;;;;;;;;10406289;28;20025;-72
2022/02/23 23:33:35;;;;;;;9.50;6.38;;;;;;;;;;10404120;28;20056;-73
2022/02/23 23:38:37;;;;;;;11.10;4.37;;;;;;;;;;10406085;28;20068;-74
2022/02/23 23:43:38;;;;;;;13.43;5.28;;;;;;;;;;10404708;28;20451;-77
2022/02/23 23:48:38;;;;;;;19.83;5.63;;;;;;;;;;10404815;28;20083;-79
2022/02/23 23:53:39;;;;;;;8.23;5.00;;;;;;;;;;10404553;28;20033;-80
2022/02/23 23:58:39;;;;;;;15.40;4.55;;;;;;;;;;10405308;28;20416;-72
